Map

Track Data

SID SEASON NUMBER BASIN SUBBASIN NAME ISO_TIME NATURE LAT LON WMO_WIND WMO_PRES WMO_AGENCY TRACK_TYPE DIST2LAND LANDFALL IFLAG USA_AGENCY USA_ATCF_ID USA_LAT USA_LON USA_RECORD USA_STATUS USA_WIND USA_PRES USA_SSHS USA_R34_NE USA_R34_SE USA_R34_SW USA_R34_NW USA_R50_NE USA_R50_SE USA_R50_SW USA_R50_NW USA_R64_NE USA_R64_SE USA_R64_SW USA_R64_NW USA_POCI USA_ROCI USA_RMW USA_EYE TOKYO_LAT TOKYO_LON TOKYO_GRADE TOKYO_WIND TOKYO_PRES TOKYO_R50_DIR TOKYO_R50_LONG TOKYO_R50_SHORT TOKYO_R30_DIR TOKYO_R30_LONG TOKYO_R30_SHORT TOKYO_LAND CMA_LAT CMA_LON CMA_CAT CMA_WIND CMA_PRES HKO_LAT HKO_LON HKO_CAT HKO_WIND HKO_PRES NEWDELHI_LAT NEWDELHI_LON NEWDELHI_GRADE NEWDELHI_WIND NEWDELHI_PRES NEWDELHI_CI NEWDELHI_DP NEWDELHI_POCI REUNION_LAT REUNION_LON REUNION_TYPE REUNION_WIND REUNION_PRES REUNION_TNUM REUNION_CI REUNION_RMW REUNION_R34_NE REUNION_R34_SE REUNION_R34_SW REUNION_R34_NW REUNION_R50_NE REUNION_R50_SE REUNION_R50_SW REUNION_R50_NW REUNION_R64_NE REUNION_R64_SE REUNION_R64_SW REUNION_R64_NW BOM_LAT BOM_LON BOM_TYPE BOM_WIND BOM_PRES BOM_TNUM BOM_CI BOM_RMW BOM_R34_NE BOM_R34_SE BOM_R34_SW BOM_R34_NW BOM_R50_NE BOM_R50_SE BOM_R50_SW BOM_R50_NW BOM_R64_NE BOM_R64_SE BOM_R64_SW BOM_R64_NW BOM_ROCI BOM_POCI BOM_EYE BOM_POS_METHOD BOM_PRES_METHOD NADI_LAT NADI_LON NADI_CAT NADI_WIND NADI_PRES WELLINGTON_LAT WELLINGTON_LON WELLINGTON_WIND WELLINGTON_PRES DS824_LAT DS824_LON DS824_STAGE DS824_WIND DS824_PRES TD9636_LAT TD9636_LON TD9636_STAGE TD9636_WIND TD9636_PRES TD9635_LAT TD9635_LON TD9635_WIND TD9635_PRES TD9635_ROCI NEUMANN_LAT NEUMANN_LON NEUMANN_CLASS NEUMANN_WIND NEUMANN_PRES MLC_LAT MLC_LON MLC_CLASS MLC_WIND MLC_PRES USA_GUST BOM_GUST BOM_GUST_PER REUNION_GUST REUNION_GUST_PER USA_SEAHGT USA_SEARAD_NE USA_SEARAD_SE USA_SEARAD_SW USA_SEARAD_NW STORM_SPEED STORM_DIR
1883280N27301 1883 30 NA NA NOT_NAMED 1883-10-06 12:00:00 TS 27.0000 -59.0000 main 1175 1154 _____________O -1 27.0000 -59.0000 TD 25 5 254
1883280N27301 1883 30 NA NA NOT_NAMED 1883-10-06 15:00:00 TS 26.9376 -59.2501 main 1148 1137 _____________P -1 26.9376 -59.2501 TD 25 5 257
1883280N27301 1883 30 NA NA NOT_NAMED 1883-10-06 18:00:00 TS 26.9000 -59.5000 main 1137 1126 _____________O -1 26.9000 -59.5000 TD 25 4 265
1883280N27301 1883 30 NA NA NOT_NAMED 1883-10-06 21:00:00 TS 26.9000 -59.7499 main 1126 1109 _____________P -1 26.9000 -59.7499 TD 27 4 270
1883280N27301 1883 30 NA NA NOT_NAMED 1883-10-07 00:00:00 TS 26.9000 -60.0000 main 1109 1099 _____________O -1 26.9000 -60.0000 TD 30 4 264
1883280N27301 1883 30 NA NA NOT_NAMED 1883-10-07 03:00:00 TS 26.8500 -60.2501 main 1084 1074 _____________P -1 26.8500 -60.2501 TD 30 5 257
1883280N27301 1883 30 NA NA NOT_NAMED 1883-10-07 06:00:00 TS 26.8000 -60.5000 main 1074 1055 _____________O -1 26.8000 -60.5000 TD 30 4 253
1883280N27301 1883 30 NA NA NOT_NAMED 1883-10-07 09:00:00 TS 26.7245 -60.6984 main 1055 1045 _____________P -1 26.7245 -60.6984 TD 30 4 270
1883280N27301 1883 30 NA NA NOT_NAMED 1883-10-07 12:00:00 TS 26.8000 -61.0000 main 1050 1046 _____________O -1 26.8000 -61.0000 TD 30 9 301
1883280N27301 1883 30 NA NA NOT_NAMED 1883-10-07 15:00:00 TS 27.1754 -61.5543 main 1065 1065 _____________P -1 27.1754 -61.5543 TD 30 14 310
1883280N27301 1883 30 NA NA NOT_NAMED 1883-10-07 18:00:00 TS 27.7000 -62.2000 main 1095 1095 _____________O -1 27.7000 -62.2000 TD 30 15 314
1883280N27301 1883 30 NA NA NOT_NAMED 1883-10-07 21:00:00 TS 28.1997 -62.7579 main 1131 1131 _____________P -1 28.1997 -62.7579 TD 30 14 316
1883280N27301 1883 30 NA NA NOT_NAMED 1883-10-08 00:00:00 TS 28.7000 -63.3000 main 1174 1174 _____________O -1 28.7000 -63.3000 TD 30 14 315
1883280N27301 1883 30 NA NA NOT_NAMED 1883-10-08 03:00:00 TS 29.1573 -63.8506 main 1219 1219 _____________P -1 29.1573 -63.8506 TD 32 13 313
1883280N27301 1883 30 NA NA NOT_NAMED 1883-10-08 06:00:00 TS 29.6000 -64.4000 main 1244 1165 _____________O -1 29.6000 -64.4000 TS 35 14 311
1883280N27301 1883 30 NA NA NOT_NAMED 1883-10-08 09:00:00 TS 30.0880 -65.0763 main 1157 1100 _____________P -1 30.0880 -65.0763 TS 37 13 313
1883280N27301 1883 30 NA NA NOT_NAMED 1883-10-08 12:00:00 TS 30.5000 -65.5000 main 1100 1087 _____________O -1 30.5000 -65.5000 TS 40 7 342
1883280N27301 1883 30 NA NA NOT_NAMED 1883-10-08 15:00:00 TS 30.7374 -65.3285 main 1103 1097 _____________P -1 30.7374 -65.3285 TS 42 7 52
1883280N27301 1883 30 NA NA NOT_NAMED 1883-10-08 18:00:00 TS 30.9000 -64.9000 main 1123 1123 _____________O -1 30.9000 -64.9000 TS 45 7 60
1883280N27301 1883 30 NA NA NOT_NAMED 1883-10-08 21:00:00 TS 31.1000 -64.5924 main 1136 1136 _____________P -1 31.1000 -64.5924 TS 45 7 52
1883280N27301 1883 30 NA NA NOT_NAMED 1883-10-09 00:00:00 TS 31.3000 -64.3000 main 1149 1149 _____________O -1 31.3000 -64.3000 TS 45 6 49
1883280N27301 1883 30 NA NA NOT_NAMED 1883-10-09 03:00:00 TS 31.5074 -64.0499 main 1164 1159 _____________P -1 31.5074 -64.0499 TS 47 6 47
1883280N27301 1883 30 NA NA NOT_NAMED 1883-10-09 06:00:00 TS 31.7000 -63.8000 main 1171 1171 _____________O -1 31.7000 -63.8000 TS 50 7 56
1883280N27301 1883 30 NA NA NOT_NAMED 1883-10-09 09:00:00 TS 31.8801 -63.3952 main 1195 1195 _____________P -1 31.8801 -63.3952 TS 52 6 59
1883280N27301 1883 30 NA NA NOT_NAMED 1883-10-09 12:00:00 TS 32.0000 -63.2000 main 1208 1182 _____________O -1 32.0000 -63.2000 TS 55 998 2 320
1883280N27301 1883 30 NA NA NOT_NAMED 1883-10-09 15:00:00 TS 32.0228 -63.5374 main 1182 1131 _____________P -1 32.0228 -63.5374 TS 52 8 270
1883280N27301 1883 30 NA NA NOT_NAMED 1883-10-09 18:00:00 TS 32.0000 -64.1000 main 1131 1097 _____________O -1 32.0000 -64.1000 TS 50 8 268
1883280N27301 1883 30 NA NA NOT_NAMED 1883-10-09 21:00:00 TS 31.9994 -64.5125 main 1097 1055 _____________P -1 31.9994 -64.5125 TS 47 8 270
1883280N27301 1883 30 NA NA NOT_NAMED 1883-10-10 00:00:00 TS 32.0000 -65.0000 main 1055 1004 _____________O -1 32.0000 -65.0000 TS 45 10 270
1883280N27301 1883 30 NA NA NOT_NAMED 1883-10-10 03:00:00 TS 32.0003 -65.6700 main 996 938 _____________P -1 32.0003 -65.6700 TS 45 12 270
1883280N27301 1883 30 NA NA NOT_NAMED 1883-10-10 06:00:00 TS 32.0000 -66.4000 main 938 889 _____________O -1 32.0000 -66.4000 TS 45 12 271
1883280N27301 1883 30 NA NA NOT_NAMED 1883-10-10 09:00:00 TS 32.0217 -67.0345 main 889 833 _____________P -1 32.0217 -67.0345 TS 42 11 270
1883280N27301 1883 30 NA NA NOT_NAMED 1883-10-10 12:00:00 TS 32.0000 -67.7000 main 833 785 _____________O -1 32.0000 -67.7000 TS 40 12 263
1883280N27301 1883 30 NA NA NOT_NAMED 1883-10-10 15:00:00 TS 31.8649 -68.4781 main 777 731 _____________P -1 31.8649 -68.4781 TS 40 14 258
1883280N27301 1883 30 NA NA NOT_NAMED 1883-10-10 18:00:00 TS 31.7000 -69.3000 main 731 682 _____________O -1 31.7000 -69.3000 TS 40 14 259
1883280N27301 1883 30 NA NA NOT_NAMED 1883-10-10 21:00:00 TS 31.5995 -70.0994 main 682 628 _____________P -1 31.5995 -70.0994 TS 40 14 262
1883280N27301 1883 30 NA NA NOT_NAMED 1883-10-11 00:00:00 TS 31.5000 -70.9000 main 628 578 _____________O -1 31.5000 -70.9000 TS 40 14 260
1883280N27301 1883 30 NA NA NOT_NAMED 1883-10-11 03:00:00 TS 31.3496 -71.7076 main 585 539 _____________P -1 31.3496 -71.7076 TS 37 14 258
1883280N27301 1883 30 NA NA NOT_NAMED 1883-10-11 06:00:00 TS 31.2000 -72.5000 main 539 500 _____________O -1 31.2000 -72.5000 TS 35 14 258
1883280N27301 1883 30 NA NA NOT_NAMED 1883-10-11 09:00:00 TS 31.0628 -73.3177 main 500 473 _____________P -1 31.0628 -73.3177 TS 35 13 261
1883280N27301 1883 30 NA NA NOT_NAMED 1883-10-11 12:00:00 TS 31.0000 -74.0000 main 473 446 _____________O -1 31.0000 -74.0000 TS 35 1006 9 271
1883280N27301 1883 30 NA NA NOT_NAMED 1883-10-11 15:00:00 TS 31.0767 -74.4096 main 446 424 _____________P -1 31.0767 -74.4096 TS 32 6 288
1883280N27301 1883 30 NA NA NOT_NAMED 1883-10-11 18:00:00 TS 31.2000 -74.7000 main 424 403 _____________O -1 31.2000 -74.7000 TD 30 6 288
1883280N27301 1883 30 NA NA NOT_NAMED 1883-10-11 21:00:00 TS 31.2574 -75.0501 main 396 378 _____________P -1 31.2574 -75.0501 TD 30 6 279
1883280N27301 1883 30 NA NA NOT_NAMED 1883-10-12 00:00:00 TS 31.3000 -75.4000 main 378 360 _____________O -1 31.3000 -75.4000 TD 30 6 279
1883280N27301 1883 30 NA NA NOT_NAMED 1883-10-12 03:00:00 TS 31.3499 -75.7500 main 355 330 _____________P -1 31.3499 -75.7500 TD 30 6 280
1883280N27301 1883 30 NA NA NOT_NAMED 1883-10-12 06:00:00 TS 31.4000 -76.1000 main 330 320 _____________O -1 31.4000 -76.1000 TD 30 5 281
1883280N27301 1883 30 NA NA NOT_NAMED 1883-10-12 09:00:00 TS 31.4489 -76.3677 main 316 290 _____________P -1 31.4489 -76.3677 TD 30 6 280
1883280N27301 1883 30 NA NA NOT_NAMED 1883-10-12 12:00:00 TS 31.5000 -76.8000 main 290 231 _____________O -1 31.5000 -76.8000 TD 30 1009 12 275
1883280N27301 1883 30 NA NA NOT_NAMED 1883-10-12 15:00:00 TS 31.5527 -77.7672 main 216 172 _____________P -1 31.5527 -77.7672 TD 30 15 274
1883280N27301 1883 30 NA NA NOT_NAMED 1883-10-12 18:00:00 ET 31.6000 -78.6000 main 172 165 _____________O -1 31.6000 -78.6000 EX 30 7 278
1883280N27301 1883 30 NA NA NOT_NAMED 1883-10-12 21:00:00 ET 31.6490 -78.5678 main 172 163 _____________P -1 31.6490 -78.5678 EX 30 2 60
1883280N27301 1883 30 NA NA NOT_NAMED 1883-10-13 00:00:00 ET 31.7000 -78.4000 main 172 149 _____________O -1 31.7000 -78.4000 EX 30 2 303
1883280N27301 1883 30 NA NA NOT_NAMED 1883-10-13 03:00:00 ET 31.7578 -78.7673 main 143 110 _____________P -1 31.7578 -78.7673 EX 30 8 277
1883280N27301 1883 30 NA NA NOT_NAMED 1883-10-13 06:00:00 ET 31.8000 -79.3000 main 110 91 _____________O -1 31.8000 -79.3000 EX 30 9 271
1883280N27301 1883 30 NA NA NOT_NAMED 1883-10-13 09:00:00 ET 31.7703 -79.8401 main 91 64 _____________P -1 31.7703 -79.8401 EX 30 8 270
1883280N27301 1883 30 NA NA NOT_NAMED 1883-10-13 12:00:00 ET 31.8000 -80.2000 main 64 50 _____________O -1 31.8000 -80.2000 EX 30 1013 4 314
1883280N27301 1883 30 NA NA NOT_NAMED 1883-10-13 15:00:00 ET 32.0198 -80.1404 main 57 34 _____________P -1 32.0198 -80.1404 EX 30 6 27
1883280N27301 1883 30 NA NA NOT_NAMED 1883-10-13 18:00:00 ET 32.3000 -79.9000 main 34 21 _____________O -1 32.3000 -79.9000 EX 30 6 34
1883280N27301 1883 30 NA NA NOT_NAMED 1883-10-13 21:00:00 ET 32.5075 -79.7499 main 29 21 _____________P -1 32.5075 -79.7499 EX 30 5 32
1883280N27301 1883 30 NA NA NOT_NAMED 1883-10-14 00:00:00 ET 32.7000 -79.6000 main 21 11 _____________O -1 32.7000 -79.6000 EX 30 5 33
1883280N27301 1883 30 NA NA NOT_NAMED 1883-10-14 03:00:00 ET 32.9000 -79.4499 main 11 0 _____________P -1 32.9000 -79.4499 EX 30 5 32
1883280N27301 1883 30 NA NA NOT_NAMED 1883-10-14 06:00:00 ET 33.1000 -79.3000 main 9 0 _____________O -1 33.1000 -79.3000 EX 30 5 32
1883280N27301 1883 30 NA NA NOT_NAMED 1883-10-14 09:00:00 ET 33.3000 -79.1501 main 0 0 _____________P -1 33.3000 -79.1501 EX 30 5 32
1883280N27301 1883 30 NA NA NOT_NAMED 1883-10-14 12:00:00 ET 33.5000 -79.0000 main 9 _____________O -1 33.5000 -79.0000 EX 30 1016 5 33

About IBTrACS Database

This database is a web-friendly format of International Best Track Archive for Climate Stewardship (IBTrACS), a global best track data archive curated by NOAA dating back to 1842.

Updated: 2021-10-19